Chandalar Lake, Alaska
Current Conditions -  °F | °C
As of 11:53 PM on Thursday 23 Oct 2014 (Local Time) from PABT Reporting Station
Overcast Overcast  
Wind Chill: 20°   Ceiling: 1900
Heat Index: 20°   Visibility: 10mi
Dew Point: 15°   Wind: 0mph
Humidity: 81%   Direction: NA
Pressure: 29.77"   Gusts: NA
Location:  67.5°N, 148.48°W
Report Text: PABT 240753Z 00000KT 10SM BKN019 BKN039 OVC080 M07/M09 A2977 RMK AO2 SNB03E17 SLP098 T10671094 $
Loading
Personal Weather Stations






























Interactive Weather Map
Tropical Storm Tracking
New forecast layout! Learn more

10-Day Weather Forecast

Advertisements
Track Severe Weather on mobile